Witmer, PA (17585)

4:52 PM EDT on August 30, 2014 (GMT -0400)
Leola | Change Station
CLOSE
Current Station
Personal Weather Station
Location: Leacock-Leola-Bareville, PA
Elevation: 420 ft
Nearby Weather Stations

Elev 420 ft 40.09 °N, 76.18 °W | Updated 4 seconds ago

Partly Cloudy
Partly Cloudy
78.3 °F
Feels Like 78 °F
N
7.2
Wind Variable Wind from SSW
Gusts 7.2 mph

Today
High -- | Low -- °F
--% Chance of Precip.
Yesterday
High -- | Low -- °F
Precip. -- in
6:30 AM 7:39 PM
Waxing Crescent, 24% visible
Pressure 30.15 in
Visibility 10.0 miles
Clouds Few 3400 ft
Heat Index 78 °F
Dew Point 42 °F
Humidity 28%
Rainfall -999.00 in
Snow Depth Not available.
UV 5 out of 12
Pollen 9.40 out of 12
Ozone Good
PM2.5 Moderate
Flu Activity Not available.
METAR KLNS 301953Z 15010KT 10SM FEW034 26/17 A3016 RMK AO2 SLP210 T02610167 $

More Conditions Fewer Conditions

Pressure 30.15 in
Visibility 10.0 miles
Clouds Few 3400 ft
Heat Index 78 °F
Dew Point 42 °F
Humidity 28%
Rainfall -999.00 in
Snow Depth Not available.
UV 5 out of 12
Pollen 9.40 out of 12
Ozone Good
PM2.5 Moderate
Flu Activity Not available.
METAR KLNS 301953Z 15010KT 10SM FEW034 26/17 A3016 RMK AO2 SLP210 T02610167 $

More Conditions Fewer Conditions

10-Day Weather Forecast

Almanac

Astronomy

Aug. 30, 2014 Rise Set
Actual Time 6:30 AM EDT 7:39 PM EDT
Civil Twilight 6:02 AM EDT 8:07 PM EDT
Nautical Twilight 5:29 AM EDT 8:40 PM EDT
Astronomical Twilight 4:54 AM EDT 9:15 PM EDT
Moon 11:16 AM EDT 10:12 PM EDT
Length of Visible Light 14h 04m
Length of Day
13h 08m
Tomorrow will be 2m 31s shorter.
Waxing Crescent, 24% of the Moon is Illuminated
Today
Waxing Crescent
Sep 2
First Quarter
Sep 8
Full
Sep 15
Last Quarter
Sep 24
New

Today's Extremes

State Highs State Lows

Community

WunderPhotos

Upload Photos

1,748,624 photos uploaded!

WunderBlogs® & News

Nearby

Air Quality

  Air Quality AQ Index Pollutant
Yesterday Good
PM2.5
Yesterday Good
OZONE
Current Moderate
PM2.5
Current Good
OZONE
Saturday Moderate
PM2.5
Saturday Moderate
OZONE
Sunday Moderate
PM2.5
Sunday Moderate
OZONE
Monday Moderate
PM2.5
Monday Moderate
OZONE
Tuesday Moderate
PM2.5
Tuesday Good
OZONE
Wednesday Good
PM2.5
Wednesday Good
OZONE

Snow Depth

Station Depth Elevation
No new snow has been reported.

Earthquake Activity

City Distance Mag. Time & Date
No recent earthquake activity has been reported nearby.
Minimum magnitude displayed is 2.5.

Coastal Water Temperatures

Place Temperature
No Stations Reporting

Nearby Weather Stations